sensor_id;sensor_type;location;lat;lon;timestamp;pressure;altitude;pressure_sealevel;temperature;humidity
20987;BME280;10652;50.306;8.570;2023-07-30T00:01:14;97404.97;;;17.67;88.71
20987;BME280;10652;50.306;8.570;2023-07-30T00:05:16;97406.88;;;17.65;90.07
20987;BME280;10652;50.306;8.570;2023-07-30T00:09:18;97405.06;;;17.65;89.42
20987;BME280;10652;50.306;8.570;2023-07-30T00:13:20;97409.09;;;17.60;89.36
20987;BME280;10652;50.306;8.570;2023-07-30T00:17:22;97408.78;;;17.53;90.05
20987;BME280;10652;50.306;8.570;2023-07-30T00:21:24;97409.44;;;17.45;90.26
20987;BME280;10652;50.306;8.570;2023-07-30T00:25:26;97410.91;;;17.38;91.08
20987;BME280;10652;50.306;8.570;2023-07-30T00:29:29;97416.44;;;17.35;91.56
20987;BME280;10652;50.306;8.570;2023-07-30T00:33:31;97423.00;;;17.31;92.04
20987;BME280;10652;50.306;8.570;2023-07-30T00:37:33;97425.91;;;17.28;92.66
20987;BME280;10652;50.306;8.570;2023-07-30T00:41:35;97420.59;;;17.28;93.18
20987;BME280;10652;50.306;8.570;2023-07-30T00:45:41;97418.06;;;17.27;94.28
20987;BME280;10652;50.306;8.570;2023-07-30T00:49:44;97419.19;;;17.24;94.51
20987;BME280;10652;50.306;8.570;2023-07-30T00:53:47;97433.69;;;17.20;95.01
20987;BME280;10652;50.306;8.570;2023-07-30T00:57:50;97435.88;;;17.15;95.58
20987;BME280;10652;50.306;8.570;2023-07-30T01:01:52;97446.50;;;17.15;96.06
20987;BME280;10652;50.306;8.570;2023-07-30T01:05:56;97444.69;;;17.16;96.13
20987;BME280;10652;50.306;8.570;2023-07-30T01:09:59;97434.75;;;17.18;95.94
20987;BME280;10652;50.306;8.570;2023-07-30T01:14:02;97439.00;;;17.20;95.65
20987;BME280;10652;50.306;8.570;2023-07-30T01:18:05;97439.69;;;17.22;95.40
20987;BME280;10652;50.306;8.570;2023-07-30T01:22:07;97439.00;;;17.20;95.06
20987;BME280;10652;50.306;8.570;2023-07-30T01:26:12;97452.00;;;17.23;95.02
20987;BME280;10652;50.306;8.570;2023-07-30T01:30:29;97459.84;;;17.25;94.80
20987;BME280;10652;50.306;8.570;2023-07-30T01:34:35;97465.00;;;17.26;94.40
20987;BME280;10652;50.306;8.570;2023-07-30T01:38:39;97461.38;;;17.27;94.47
20987;BME280;10652;50.306;8.570;2023-07-30T01:42:42;97473.97;;;17.25;93.93
20987;BME280;10652;50.306;8.570;2023-07-30T01:46:44;97476.00;;;17.22;93.86
20987;BME280;10652;50.306;8.570;2023-07-30T01:50:46;97476.38;;;17.17;93.96
20987;BME280;10652;50.306;8.570;2023-07-30T01:54:50;97478.34;;;17.15;94.20
20987;BME280;10652;50.306;8.570;2023-07-30T01:58:53;97480.28;;;17.13;94.05
20987;BME280;10652;50.306;8.570;2023-07-30T02:02:55;97480.28;;;17.13;94.51
20987;BME280;10652;50.306;8.570;2023-07-30T02:06:57;97482.91;;;17.13;94.10
20987;BME280;10652;50.306;8.570;2023-07-30T02:10:59;97485.84;;;17.10;94.12
20987;BME280;10652;50.306;8.570;2023-07-30T02:15:02;97481.88;;;17.04;94.37
20987;BME280;10652;50.306;8.570;2023-07-30T02:19:04;97495.13;;;17.04;94.77
20987;BME280;10652;50.306;8.570;2023-07-30T02:23:06;97507.56;;;17.04;94.84
20987;BME280;10652;50.306;8.570;2023-07-30T02:27:08;97505.63;;;17.06;94.52
20987;BME280;10652;50.306;8.570;2023-07-30T02:31:10;97502.03;;;17.07;95.01
20987;BME280;10652;50.306;8.570;2023-07-30T02:35:12;97509.84;;;17.08;94.95
20987;BME280;10652;50.306;8.570;2023-07-30T02:39:14;97503.56;;;17.09;94.45
20987;BME280;10652;50.306;8.570;2023-07-30T02:43:16;97498.53;;;17.06;93.81
20987;BME280;10652;50.306;8.570;2023-07-30T02:47:19;97493.34;;;17.05;94.35
20987;BME280;10652;50.306;8.570;2023-07-30T02:51:21;97506.72;;;17.03;94.15
20987;BME280;10652;50.306;8.570;2023-07-30T02:55:23;97507.81;;;17.01;94.74
20987;BME280;10652;50.306;8.570;2023-07-30T02:59:25;97510.38;;;17.02;94.93
20987;BME280;10652;50.306;8.570;2023-07-30T03:03:27;97519.97;;;17.03;95.03
20987;BME280;10652;50.306;8.570;2023-07-30T03:07:30;97517.94;;;17.07;95.07
20987;BME280;10652;50.306;8.570;2023-07-30T03:11:32;97516.00;;;17.09;95.21
20987;BME280;10652;50.306;8.570;2023-07-30T03:15:34;97514.56;;;17.05;94.79
20987;BME280;10652;50.306;8.570;2023-07-30T03:19:36;97520.97;;;17.02;94.99
20987;BME280;10652;50.306;8.570;2023-07-30T03:23:38;97526.66;;;16.98;95.28
20987;BME280;10652;50.306;8.570;2023-07-30T03:27:40;97519.19;;;16.92;95.23
20987;BME280;10652;50.306;8.570;2023-07-30T03:31:43;97521.94;;;16.90;96.14
20987;BME280;10652;50.306;8.570;2023-07-30T03:35:45;97527.25;;;16.90;96.41
20987;BME280;10652;50.306;8.570;2023-07-30T03:39:47;97534.16;;;16.82;96.74
20987;BME280;10652;50.306;8.570;2023-07-30T03:43:49;97537.69;;;16.71;96.91
20987;BME280;10652;50.306;8.570;2023-07-30T03:47:51;97537.56;;;16.61;96.98
20987;BME280;10652;50.306;8.570;2023-07-30T03:51:53;97535.88;;;16.60;97.45
20987;BME280;10652;50.306;8.570;2023-07-30T03:55:55;97532.13;;;16.63;97.63
20987;BME280;10652;50.306;8.570;2023-07-30T03:59:57;97535.16;;;16.58;97.55
20987;BME280;10652;50.306;8.570;2023-07-30T04:04:01;97532.13;;;16.52;97.68
20987;BME280;10652;50.306;8.570;2023-07-30T04:08:03;97532.84;;;16.43;98.39
20987;BME280;10652;50.306;8.570;2023-07-30T04:12:06;97541.50;;;16.45;98.88
20987;BME280;10652;50.306;8.570;2023-07-30T04:16:08;97541.66;;;16.43;98.53
20987;BME280;10652;50.306;8.570;2023-07-30T04:20:10;97555.88;;;16.42;98.26
20987;BME280;10652;50.306;8.570;2023-07-30T04:24:12;97545.84;;;16.46;97.80
20987;BME280;10652;50.306;8.570;2023-07-30T04:28:15;97538.75;;;16.46;97.75
20987;BME280;10652;50.306;8.570;2023-07-30T04:32:17;97541.16;;;16.49;97.54
20987;BME280;10652;50.306;8.570;2023-07-30T04:36:20;97544.91;;;16.58;96.76
20987;BME280;10652;50.306;8.570;2023-07-30T04:40:24;97543.00;;;16.60;96.32
20987;BME280;10652;50.306;8.570;2023-07-30T04:44:26;97537.50;;;18.11;95.89
20987;BME280;10652;50.306;8.570;2023-07-30T04:48:33;97546.72;;;18.58;86.83
20987;BME280;10652;50.306;8.570;2023-07-30T04:52:37;97538.81;;;17.96;85.98
20987;BME280;10652;50.306;8.570;2023-07-30T04:56:39;97540.75;;;17.52;87.47
20987;BME280;10652;50.306;8.570;2023-07-30T05:00:41;97543.84;;;17.26;89.05
20987;BME280;10652;50.306;8.570;2023-07-30T05:04:45;97549.28;;;17.13;90.24
20987;BME280;10652;50.306;8.570;2023-07-30T05:08:47;97548.53;;;18.98;88.00
20987;BME280;10652;50.306;8.570;2023-07-30T05:12:49;97552.03;;;21.34;76.70
20987;BME280;10652;50.306;8.570;2023-07-30T05:16:51;97544.25;;;21.58;70.93
20987;BME280;10652;50.306;8.570;2023-07-30T05:20:54;97545.28;;;24.27;62.61
20987;BME280;10652;50.306;8.570;2023-07-30T05:24:56;97545.28;;;26.43;53.42
20987;BME280;10652;50.306;8.570;2023-07-30T05:28:58;97545.88;;;28.04;47.73
20987;BME280;10652;50.306;8.570;2023-07-30T05:33:00;97532.41;;;29.42;44.04
20987;BME280;10652;50.306;8.570;2023-07-30T05:37:03;97530.69;;;30.54;41.53
20987;BME280;10652;50.306;8.570;2023-07-30T05:41:05;97521.66;;;28.39;41.84
20987;BME280;10652;50.306;8.570;2023-07-30T05:45:07;97531.72;;;27.60;43.05
20987;BME280;10652;50.306;8.570;2023-07-30T05:49:10;97525.81;;;29.04;42.28
20987;BME280;10652;50.306;8.570;2023-07-30T05:53:13;97525.88;;;29.91;40.27
20987;BME280;10652;50.306;8.570;2023-07-30T05:57:15;97527.75;;;30.49;39.18
20987;BME280;10652;50.306;8.570;2023-07-30T06:01:17;97529.28;;;28.08;39.95
20987;BME280;10652;50.306;8.570;2023-07-30T06:05:20;97543.97;;;25.78;43.16
20987;BME280;10652;50.306;8.570;2023-07-30T06:09:22;97543.09;;;24.22;46.35
20987;BME280;10652;50.306;8.570;2023-07-30T06:13:24;97545.34;;;23.36;48.76
20987;BME280;10652;50.306;8.570;2023-07-30T06:17:26;97545.06;;;24.52;49.82
20987;BME280;10652;50.306;8.570;2023-07-30T06:21:28;97558.00;;;27.73;43.96
20987;BME280;10652;50.306;8.570;2023-07-30T06:25:31;97553.38;;;29.88;39.50
20987;BME280;10652;50.306;8.570;2023-07-30T06:29:33;97552.00;;;31.79;36.88
20987;BME280;10652;50.306;8.570;2023-07-30T06:33:35;97540.06;;;33.22;34.99
20987;BME280;10652;50.306;8.570;2023-07-30T06:37:37;97546.88;;;31.96;34.40
20987;BME280;10652;50.306;8.570;2023-07-30T06:41:39;97553.75;;;29.11;36.99
20987;BME280;10652;50.306;8.570;2023-07-30T06:45:42;97553.53;;;26.79;39.93
20987;BME280;10652;50.306;8.570;2023-07-30T06:49:44;97566.25;;;25.03;42.64
20987;BME280;10652;50.306;8.570;2023-07-30T06:53:47;97570.91;;;24.13;44.97
20987;BME280;10652;50.306;8.570;2023-07-30T06:57:49;97582.50;;;23.73;46.12
20987;BME280;10652;50.306;8.570;2023-07-30T07:01:51;97569.81;;;23.41;47.96
20987;BME280;10652;50.306;8.570;2023-07-30T07:05:54;97574.25;;;23.08;48.07
20987;BME280;10652;50.306;8.570;2023-07-30T07:09:57;97576.81;;;22.84;49.47
20987;BME280;10652;50.306;8.570;2023-07-30T07:13:59;97581.22;;;22.67;49.91
20987;BME280;10652;50.306;8.570;2023-07-30T07:18:01;97575.38;;;22.38;51.44
20987;BME280;10652;50.306;8.570;2023-07-30T07:22:04;97591.25;;;21.96;54.23
20987;BME280;10652;50.306;8.570;2023-07-30T07:26:06;97586.97;;;21.50;55.30
20987;BME280;10652;50.306;8.570;2023-07-30T07:30:09;97610.03;;;21.24;57.12
20987;BME280;10652;50.306;8.570;2023-07-30T07:34:11;97612.38;;;20.99;58.45
20987;BME280;10652;50.306;8.570;2023-07-30T07:38:14;97613.88;;;20.84;59.65
20987;BME280;10652;50.306;8.570;2023-07-30T07:42:16;97617.13;;;20.78;60.29
20987;BME280;10652;50.306;8.570;2023-07-30T07:46:18;97595.47;;;20.81;60.35
20987;BME280;10652;50.306;8.570;2023-07-30T07:50:20;97582.28;;;20.80;59.44
20987;BME280;10652;50.306;8.570;2023-07-30T07:54:22;97581.88;;;20.75;59.29
20987;BME280;10652;50.306;8.570;2023-07-30T07:58:24;97572.19;;;21.01;59.68
20987;BME280;10652;50.306;8.570;2023-07-30T08:02:27;97579.72;;;21.33;59.11
20987;BME280;10652;50.306;8.570;2023-07-30T08:06:29;97578.63;;;21.53;57.15
20987;BME280;10652;50.306;8.570;2023-07-30T08:10:33;97569.09;;;21.51;56.41
20987;BME280;10652;50.306;8.570;2023-07-30T08:14:35;97564.91;;;21.48;56.25
20987;BME280;10652;50.306;8.570;2023-07-30T08:18:37;97571.38;;;21.45;56.24
20987;BME280;10652;50.306;8.570;2023-07-30T08:22:39;97570.88;;;21.32;56.38
20987;BME280;10652;50.306;8.570;2023-07-30T08:26:41;97571.00;;;21.31;56.69
20987;BME280;10652;50.306;8.570;2023-07-30T08:30:43;97568.44;;;21.21;56.55
20987;BME280;10652;50.306;8.570;2023-07-30T08:34:45;97566.28;;;21.25;57.52
20987;BME280;10652;50.306;8.570;2023-07-30T08:38:47;97548.22;;;21.54;57.41
20987;BME280;10652;50.306;8.570;2023-07-30T08:42:53;97545.91;;;21.94;56.90
20987;BME280;10652;50.306;8.570;2023-07-30T08:46:55;97542.47;;;22.20;55.29
20987;BME280;10652;50.306;8.570;2023-07-30T08:50:58;97537.56;;;22.15;55.35
20987;BME280;10652;50.306;8.570;2023-07-30T08:55:01;97539.00;;;22.10;55.95
20987;BME280;10652;50.306;8.570;2023-07-30T08:59:07;97529.31;;;22.09;56.82
20987;BME280;10652;50.306;8.570;2023-07-30T09:03:13;97535.00;;;21.88;57.70
20987;BME280;10652;50.306;8.570;2023-07-30T09:07:16;97534.34;;;21.68;58.96
20987;BME280;10652;50.306;8.570;2023-07-30T09:11:19;97537.25;;;21.57;59.70
20987;BME280;10652;50.306;8.570;2023-07-30T09:15:32;97532.13;;;21.64;60.80
20987;BME280;10652;50.306;8.570;2023-07-30T09:19:35;97528.91;;;21.42;61.28
20987;BME280;10652;50.306;8.570;2023-07-30T09:23:42;97525.75;;;21.12;62.88
20987;BME280;10652;50.306;8.570;2023-07-30T09:27:50;97535.19;;;21.06;64.38
20987;BME280;10652;50.306;8.570;2023-07-30T09:31:54;97532.44;;;20.98;65.67
20987;BME280;10652;50.306;8.570;2023-07-30T09:35:57;97549.31;;;20.71;67.97
20987;BME280;10652;50.306;8.570;2023-07-30T09:39:59;97622.16;;;20.15;73.43
20987;BME280;10652;50.306;8.570;2023-07-30T09:44:01;97632.31;;;18.94;78.96
20987;BME280;10652;50.306;8.570;2023-07-30T09:48:05;97639.59;;;18.40;83.55
20987;BME280;10652;50.306;8.570;2023-07-30T09:52:07;97625.41;;;18.30;84.21
20987;BME280;10652;50.306;8.570;2023-07-30T09:56:09;97625.13;;;18.33;83.23
20987;BME280;10652;50.306;8.570;2023-07-30T10:00:12;97628.06;;;18.30;85.27
20987;BME280;10652;50.306;8.570;2023-07-30T10:04:15;97637.94;;;18.39;85.63
20987;BME280;10652;50.306;8.570;2023-07-30T10:08:21;97650.69;;;18.66;86.22
20987;BME280;10652;50.306;8.570;2023-07-30T10:12:29;97662.69;;;18.61;84.43
20987;BME280;10652;50.306;8.570;2023-07-30T10:16:33;97661.47;;;18.44;82.78
20987;BME280;10652;50.306;8.570;2023-07-30T10:20:35;97665.78;;;18.66;85.48
20987;BME280;10652;50.306;8.570;2023-07-30T10:24:40;97666.53;;;18.98;84.08
20987;BME280;10652;50.306;8.570;2023-07-30T10:28:43;97667.47;;;19.27;79.49
20987;BME280;10652;50.306;8.570;2023-07-30T10:36:56;97678.34;;;19.55;73.26
20987;BME280;10652;50.306;8.570;2023-07-30T10:41:05;97681.69;;;20.06;74.31
20987;BME280;10652;50.306;8.570;2023-07-30T10:45:08;97686.13;;;20.63;70.32
20987;BME280;10652;50.306;8.570;2023-07-30T10:49:10;97672.22;;;20.79;68.47
20987;BME280;10652;50.306;8.570;2023-07-30T10:53:14;97677.31;;;21.10;67.85
20987;BME280;10652;50.306;8.570;2023-07-30T10:57:19;97691.44;;;20.92;65.40
20987;BME280;10652;50.306;8.570;2023-07-30T11:01:24;97686.03;;;21.12;64.92
20987;BME280;10652;50.306;8.570;2023-07-30T11:05:27;97686.47;;;21.34;64.09
20987;BME280;10652;50.306;8.570;2023-07-30T11:09:30;97688.69;;;21.12;61.42
20987;BME280;10652;50.306;8.570;2023-07-30T11:13:43;97705.59;;;21.02;61.68
20987;BME280;10652;50.306;8.570;2023-07-30T11:17:48;97715.81;;;21.17;60.86
20987;BME280;10652;50.306;8.570;2023-07-30T11:21:52;97722.50;;;21.30;58.95
20987;BME280;10652;50.306;8.570;2023-07-30T11:25:55;97730.47;;;21.03;60.11
20987;BME280;10652;50.306;8.570;2023-07-30T11:29:57;97732.50;;;20.72;60.25
20987;BME280;10652;50.306;8.570;2023-07-30T11:34:00;97732.38;;;20.26;60.36
20987;BME280;10652;50.306;8.570;2023-07-30T11:38:03;97740.63;;;20.23;62.55
20987;BME280;10652;50.306;8.570;2023-07-30T11:42:05;97745.44;;;20.48;61.71
20987;BME280;10652;50.306;8.570;2023-07-30T11:46:14;97737.56;;;20.37;60.89
20987;BME280;10652;50.306;8.570;2023-07-30T11:50:17;97757.22;;;20.36;60.60
20987;BME280;10652;50.306;8.570;2023-07-30T11:54:21;97762.28;;;20.20;60.24
20987;BME280;10652;50.306;8.570;2023-07-30T11:58:28;97765.53;;;19.83;61.74
20987;BME280;10652;50.306;8.570;2023-07-30T12:02:30;97778.91;;;19.53;64.18
20987;BME280;10652;50.306;8.570;2023-07-30T12:06:48;97779.81;;;19.33;63.18
20987;BME280;10652;50.306;8.570;2023-07-30T12:10:50;97774.13;;;19.47;63.02
20987;BME280;10652;50.306;8.570;2023-07-30T12:14:54;97773.97;;;19.88;62.65
20987;BME280;10652;50.306;8.570;2023-07-30T12:18:56;97780.25;;;20.56;59.20
20987;BME280;10652;50.306;8.570;2023-07-30T12:22:58;97774.63;;;20.88;55.22
20987;BME280;10652;50.306;8.570;2023-07-30T12:27:00;97765.34;;;21.01;55.47
20987;BME280;10652;50.306;8.570;2023-07-30T12:31:03;97771.78;;;21.09;54.45
20987;BME280;10652;50.306;8.570;2023-07-30T12:35:05;97769.69;;;21.02;53.79
20987;BME280;10652;50.306;8.570;2023-07-30T12:39:07;97773.94;;;20.76;53.35
20987;BME280;10652;50.306;8.570;2023-07-30T12:43:10;97775.47;;;20.59;54.08
20987;BME280;10652;50.306;8.570;2023-07-30T12:47:12;97764.53;;;20.53;54.47
20987;BME280;10652;50.306;8.570;2023-07-30T12:51:14;97775.47;;;20.50;53.40
20987;BME280;10652;50.306;8.570;2023-07-30T12:55:17;97765.94;;;20.38;53.07
20987;BME280;10652;50.306;8.570;2023-07-30T12:59:19;97771.53;;;20.15;54.24
20987;BME280;10652;50.306;8.570;2023-07-30T13:03:21;97782.75;;;20.09;53.06
20987;BME280;10652;50.306;8.570;2023-07-30T13:07:23;97794.56;;;20.26;52.76
20987;BME280;10652;50.306;8.570;2023-07-30T13:11:25;97788.41;;;20.26;55.14
20987;BME280;10652;50.306;8.570;2023-07-30T13:15:27;97790.38;;;20.43;56.32
20987;BME280;10652;50.306;8.570;2023-07-30T13:19:30;97783.75;;;20.85;54.67
20987;BME280;10652;50.306;8.570;2023-07-30T13:23:34;97780.19;;;21.23;50.46
20987;BME280;10652;50.306;8.570;2023-07-30T13:27:36;97793.28;;;21.17;51.03
20987;BME280;10652;50.306;8.570;2023-07-30T13:31:38;97803.59;;;20.83;51.96
20987;BME280;10652;50.306;8.570;2023-07-30T13:35:40;97794.88;;;20.61;49.94
20987;BME280;10652;50.306;8.570;2023-07-30T13:39:42;97792.88;;;20.54;51.64
20987;BME280;10652;50.306;8.570;2023-07-30T13:43:44;97786.16;;;20.50;50.55
20987;BME280;10652;50.306;8.570;2023-07-30T13:47:47;97788.25;;;20.56;52.27
20987;BME280;10652;50.306;8.570;2023-07-30T13:51:49;97788.09;;;20.67;52.02
20987;BME280;10652;50.306;8.570;2023-07-30T13:55:51;97793.72;;;20.64;50.77
20987;BME280;10652;50.306;8.570;2023-07-30T13:59:53;97794.16;;;20.69;49.77
20987;BME280;10652;50.306;8.570;2023-07-30T14:03:56;97793.63;;;20.75;51.44
20987;BME280;10652;50.306;8.570;2023-07-30T14:07:58;97789.69;;;20.89;50.62
20987;BME280;10652;50.306;8.570;2023-07-30T14:12:00;97792.03;;;21.01;51.02
20987;BME280;10652;50.306;8.570;2023-07-30T14:16:02;97783.03;;;21.12;48.99
20987;BME280;10652;50.306;8.570;2023-07-30T14:20:05;97785.22;;;21.26;49.66
20987;BME280;10652;50.306;8.570;2023-07-30T14:24:07;97789.44;;;21.48;48.20
20987;BME280;10652;50.306;8.570;2023-07-30T14:28:09;97785.19;;;21.36;48.56
20987;BME280;10652;50.306;8.570;2023-07-30T14:32:11;97777.72;;;21.49;49.12
20987;BME280;10652;50.306;8.570;2023-07-30T14:36:14;97804.88;;;21.35;47.72
20987;BME280;10652;50.306;8.570;2023-07-30T14:40:16;97799.00;;;21.22;47.92
20987;BME280;10652;50.306;8.570;2023-07-30T14:44:18;97806.31;;;21.39;48.24
20987;BME280;10652;50.306;8.570;2023-07-30T14:48:21;97797.81;;;21.53;48.21
20987;BME280;10652;50.306;8.570;2023-07-30T14:52:23;97794.16;;;21.54;48.38
20987;BME280;10652;50.306;8.570;2023-07-30T14:56:26;97781.69;;;21.72;48.46
20987;BME280;10652;50.306;8.570;2023-07-30T15:00:29;97779.78;;;21.65;47.52
20987;BME280;10652;50.306;8.570;2023-07-30T15:04:31;97771.69;;;21.47;46.61
20987;BME280;10652;50.306;8.570;2023-07-30T15:08:33;97775.66;;;21.33;48.21
20987;BME280;10652;50.306;8.570;2023-07-30T15:12:35;97779.84;;;21.36;47.67
20987;BME280;10652;50.306;8.570;2023-07-30T15:16:37;97776.50;;;21.34;46.87
20987;BME280;10652;50.306;8.570;2023-07-30T15:20:40;97774.09;;;21.31;47.73
20987;BME280;10652;50.306;8.570;2023-07-30T15:24:42;97764.69;;;21.27;46.36
20987;BME280;10652;50.306;8.570;2023-07-30T15:28:44;97762.00;;;21.36;47.42
20987;BME280;10652;50.306;8.570;2023-07-30T15:32:47;97761.81;;;21.57;48.20
20987;BME280;10652;50.306;8.570;2023-07-30T15:36:49;97758.34;;;21.74;47.72
20987;BME280;10652;50.306;8.570;2023-07-30T15:40:51;97770.16;;;21.72;46.81
20987;BME280;10652;50.306;8.570;2023-07-30T15:44:53;97769.72;;;21.76;46.43
20987;BME280;10652;50.306;8.570;2023-07-30T15:48:55;97766.19;;;21.76;46.54
20987;BME280;10652;50.306;8.570;2023-07-30T15:52:57;97770.91;;;21.64;46.17
20987;BME280;10652;50.306;8.570;2023-07-30T15:57:00;97766.31;;;21.57;45.88
20987;BME280;10652;50.306;8.570;2023-07-30T16:01:03;97763.16;;;21.71;46.31
20987;BME280;10652;50.306;8.570;2023-07-30T16:05:06;97759.13;;;21.57;45.78
20987;BME280;10652;50.306;8.570;2023-07-30T16:09:09;97768.44;;;21.43;46.64
20987;BME280;10652;50.306;8.570;2023-07-30T16:13:12;97771.69;;;21.47;46.49
20987;BME280;10652;50.306;8.570;2023-07-30T16:17:14;97774.22;;;21.39;46.79
20987;BME280;10652;50.306;8.570;2023-07-30T16:21:16;97773.13;;;21.32;46.72
20987;BME280;10652;50.306;8.570;2023-07-30T16:25:18;97776.19;;;21.37;45.92
20987;BME280;10652;50.306;8.570;2023-07-30T16:29:20;97765.63;;;21.45;45.91
20987;BME280;10652;50.306;8.570;2023-07-30T16:33:23;97780.13;;;21.42;47.21
20987;BME280;10652;50.306;8.570;2023-07-30T16:37:25;97772.44;;;21.30;47.42
20987;BME280;10652;50.306;8.570;2023-07-30T16:41:27;97772.28;;;21.22;48.98
20987;BME280;10652;50.306;8.570;2023-07-30T16:45:29;97774.84;;;21.14;46.78
20987;BME280;10652;50.306;8.570;2023-07-30T16:49:31;97770.53;;;21.03;47.80
20987;BME280;10652;50.306;8.570;2023-07-30T16:53:33;97783.91;;;20.93;49.39
20987;BME280;10652;50.306;8.570;2023-07-30T16:57:36;97796.00;;;20.88;47.73
20987;BME280;10652;50.306;8.570;2023-07-30T17:01:38;97790.66;;;20.78;47.77
20987;BME280;10652;50.306;8.570;2023-07-30T17:05:40;97789.53;;;20.81;47.35
20987;BME280;10652;50.306;8.570;2023-07-30T17:09:42;97783.91;;;20.93;46.95
20987;BME280;10652;50.306;8.570;2023-07-30T17:13:44;97794.84;;;21.00;47.09
20987;BME280;10652;50.306;8.570;2023-07-30T17:17:47;97795.44;;;20.94;46.87
20987;BME280;10652;50.306;8.570;2023-07-30T17:21:51;97793.75;;;20.74;46.89
20987;BME280;10652;50.306;8.570;2023-07-30T17:25:58;97789.78;;;20.58;47.45
20987;BME280;10652;50.306;8.570;2023-07-30T17:30:03;97787.53;;;20.54;47.51
20987;BME280;10652;50.306;8.570;2023-07-30T17:34:05;97797.53;;;20.52;48.60
20987;BME280;10652;50.306;8.570;2023-07-30T17:38:08;97804.41;;;20.45;48.29
20987;BME280;10652;50.306;8.570;2023-07-30T17:42:10;97805.09;;;20.28;49.04
20987;BME280;10652;50.306;8.570;2023-07-30T17:46:12;97809.56;;;20.17;49.50
20987;BME280;10652;50.306;8.570;2023-07-30T17:50:15;97813.34;;;20.05;49.75
20987;BME280;10652;50.306;8.570;2023-07-30T17:54:17;97816.09;;;19.94;49.70
20987;BME280;10652;50.306;8.570;2023-07-30T17:58:19;97822.53;;;19.92;50.28
20987;BME280;10652;50.306;8.570;2023-07-30T18:02:21;97816.47;;;19.90;50.88
20987;BME280;10652;50.306;8.570;2023-07-30T18:06:23;97814.09;;;19.87;51.20
20987;BME280;10652;50.306;8.570;2023-07-30T18:10:25;97819.28;;;19.88;51.41
20987;BME280;10652;50.306;8.570;2023-07-30T18:14:28;97815.06;;;19.86;51.20
20987;BME280;10652;50.306;8.570;2023-07-30T18:18:31;97813.38;;;19.75;50.60
20987;BME280;10652;50.306;8.570;2023-07-30T18:22:34;97822.69;;;19.60;50.89
20987;BME280;10652;50.306;8.570;2023-07-30T18:26:36;97817.59;;;19.47;51.55
20987;BME280;10652;50.306;8.570;2023-07-30T18:30:38;97815.84;;;19.37;52.23
20987;BME280;10652;50.306;8.570;2023-07-30T18:34:40;97813.28;;;19.25;52.14
20987;BME280;10652;50.306;8.570;2023-07-30T18:38:42;97817.69;;;19.15;53.18
20987;BME280;10652;50.306;8.570;2023-07-30T18:42:44;97823.78;;;19.06;53.17
20987;BME280;10652;50.306;8.570;2023-07-30T18:46:47;97823.13;;;18.93;53.54
20987;BME280;10652;50.306;8.570;2023-07-30T18:50:50;97824.88;;;18.83;55.22
20987;BME280;10652;50.306;8.570;2023-07-30T18:54:52;97837.78;;;18.67;53.70
20987;BME280;10652;50.306;8.570;2023-07-30T18:58:54;97839.75;;;18.54;53.87
20987;BME280;10652;50.306;8.570;2023-07-30T19:02:56;97840.75;;;18.41;54.55
20987;BME280;10652;50.306;8.570;2023-07-30T19:06:59;97841.41;;;18.34;55.24
20987;BME280;10652;50.306;8.570;2023-07-30T19:11:01;97833.53;;;18.32;55.31
20987;BME280;10652;50.306;8.570;2023-07-30T19:15:03;97851.66;;;18.27;54.33
20987;BME280;10652;50.306;8.570;2023-07-30T19:19:05;97854.84;;;18.21;54.70
20987;BME280;10652;50.306;8.570;2023-07-30T19:23:08;97846.13;;;18.19;55.33
20987;BME280;10652;50.306;8.570;2023-07-30T19:27:10;97849.63;;;18.20;56.80
20987;BME280;10652;50.306;8.570;2023-07-30T19:31:12;97856.75;;;18.19;57.79
20987;BME280;10652;50.306;8.570;2023-07-30T19:35:15;97861.84;;;18.33;58.09
20987;BME280;10652;50.306;8.570;2023-07-30T19:39:17;97857.69;;;18.40;58.29
20987;BME280;10652;50.306;8.570;2023-07-30T19:43:19;97846.91;;;18.53;57.58
20987;BME280;10652;50.306;8.570;2023-07-30T19:47:23;97852.81;;;18.57;56.65
20987;BME280;10652;50.306;8.570;2023-07-30T19:51:27;97854.75;;;18.55;56.15
20987;BME280;10652;50.306;8.570;2023-07-30T19:55:29;97860.81;;;18.57;56.50
20987;BME280;10652;50.306;8.570;2023-07-30T19:59:31;97856.47;;;18.45;55.19
20987;BME280;10652;50.306;8.570;2023-07-30T20:03:33;97858.81;;;18.38;55.68
20987;BME280;10652;50.306;8.570;2023-07-30T20:07:36;97856.78;;;18.30;54.83
20987;BME280;10652;50.306;8.570;2023-07-30T20:11:38;97852.03;;;18.23;55.06
20987;BME280;10652;50.306;8.570;2023-07-30T20:15:40;97849.25;;;18.13;57.48
20987;BME280;10652;50.306;8.570;2023-07-30T20:19:42;97839.56;;;18.23;56.99
20987;BME280;10652;50.306;8.570;2023-07-30T20:23:44;97845.84;;;18.22;55.30
20987;BME280;10652;50.306;8.570;2023-07-30T20:27:47;97843.25;;;18.11;54.95
20987;BME280;10652;50.306;8.570;2023-07-30T20:31:49;97836.00;;;18.02;55.26
20987;BME280;10652;50.306;8.570;2023-07-30T20:35:51;97840.84;;;17.97;55.57
20987;BME280;10652;50.306;8.570;2023-07-30T20:39:53;97830.69;;;17.91;55.58
20987;BME280;10652;50.306;8.570;2023-07-30T20:43:55;97837.22;;;17.87;55.92
20987;BME280;10652;50.306;8.570;2023-07-30T20:47:58;97833.59;;;17.88;56.81
20987;BME280;10652;50.306;8.570;2023-07-30T20:52:00;97830.22;;;17.86;56.77
20987;BME280;10652;50.306;8.570;2023-07-30T20:56:03;97838.34;;;17.84;56.52
20987;BME280;10652;50.306;8.570;2023-07-30T21:00:06;97838.69;;;17.80;56.46
20987;BME280;10652;50.306;8.570;2023-07-30T21:04:08;97835.56;;;17.75;56.21
20987;BME280;10652;50.306;8.570;2023-07-30T21:08:10;97836.41;;;17.75;56.79
20987;BME280;10652;50.306;8.570;2023-07-30T21:12:13;97842.56;;;17.76;56.96
20987;BME280;10652;50.306;8.570;2023-07-30T21:16:15;97830.25;;;17.75;57.03
20987;BME280;10652;50.306;8.570;2023-07-30T21:20:17;97836.25;;;17.77;56.56
20987;BME280;10652;50.306;8.570;2023-07-30T21:24:19;97831.31;;;17.72;57.25
20987;BME280;10652;50.306;8.570;2023-07-30T21:28:21;97833.13;;;17.72;57.56